Time;durP1;ratioP1;P1;durP2;ratioP2;P2;SDS_P1;SDS_P2;PMS_P1;PMS_P2;Temp;Humidity;BMP_temperature;BMP_pressure;BME280_temperature;BME280_humidity;BME280_pressure;Samples;Min_cycle;Max_cycle;Signal;HPM_P1;HPM_P2
2023/07/12 00:04:35;;;;;;;6.68;6.10;;;;;;;25.07;48.50;99238.31;10484918;28;20076;-71
2023/07/12 00:09:37;;;;;;;7.47;6.80;;;;;;;25.04;48.88;99229.69;10485596;28;20116;-71
2023/07/12 00:14:38;;;;;;;7.97;7.38;;;;;;;25.00;49.09;99210.34;10484322;28;20536;-71
2023/07/12 00:19:40;;;;;;;7.68;7.05;;;;;;;24.91;48.80;99189.81;10503841;28;20044;-71
2023/07/12 00:24:42;;;;;;;8.38;7.78;;;;;;;25.06;48.34;99177.47;10502262;28;20037;-71
2023/07/12 00:29:44;;;;;;;7.57;7.07;;;;;;;24.89;49.00;99170.34;10500810;28;20115;-72
2023/07/12 00:34:46;;;;;;;8.32;7.53;;;;;;;24.87;49.36;99159.72;10500636;28;20127;-72
2023/07/12 00:39:47;;;;;;;6.97;6.47;;;;;;;25.12;48.39;99154.47;10501088;28;20564;-72
2023/07/12 00:44:54;;;;;;;7.45;6.95;;;;;;;25.02;49.23;99145.69;10483371;28;20051;-72
2023/07/12 00:49:55;;;;;;;7.70;7.15;;;;;;;25.03;49.20;99134.75;10500903;28;20040;-72
2023/07/12 00:55:01;;;;;;;8.07;7.57;;;;;;;25.01;49.39;99125.16;10483092;28;20041;-72
2023/07/12 01:00:12;;;;;;;7.85;7.25;;;;;;;25.11;48.83;99121.38;10483037;28;20045;-72
2023/07/12 01:05:15;;;;;;;7.93;7.43;;;;;;;25.03;49.14;99117.78;10482136;28;20106;-73
2023/07/12 01:10:17;;;;;;;7.43;6.93;;;;;;;24.94;49.54;99108.84;10500190;28;20086;-72
2023/07/12 01:15:20;;;;;;;7.70;7.13;;;;;;;25.05;49.15;99119.28;10481841;28;20040;-72
2023/07/12 01:20:22;;;;;;;8.45;7.18;;;;;;;25.07;49.13;99120.00;10499601;28;20071;-72
2023/07/12 01:25:38;;;;;;;8.02;7.40;;;;;;;25.08;49.54;99110.09;10481746;28;20071;-72
2023/07/12 01:30:40;;;;;;;7.10;6.60;;;;;;;25.16;49.90;99145.09;10481790;28;20041;-71
2023/07/12 01:35:42;;;;;;;8.02;7.43;;;;;;;24.99;50.33;99143.31;10498720;28;20052;-71
2023/07/12 01:40:43;;;;;;;7.78;7.28;;;;;;;24.66;51.69;99141.34;10498975;28;20044;-71
2023/07/12 01:45:46;;;;;;;8.07;7.28;;;;;;;24.76;51.93;99124.25;10497493;28;20064;-72
2023/07/12 01:50:47;;;;;;;8.65;7.95;;;;;;;24.80;51.41;99112.16;10498226;28;20032;-72
2023/07/12 01:55:49;;;;;;;8.38;7.80;;;;;;;25.12;50.28;99111.47;10498548;28;20405;-72
2023/07/12 02:00:52;;;;;;;8.52;7.80;;;;;;;25.65;49.00;99115.56;10480349;28;20414;-72
2023/07/12 02:05:54;;;;;;;16.77;7.38;;;;;;;26.11;47.35;99111.38;10497980;28;20119;-71
2023/07/12 02:10:56;;;;;;;6.50;6.00;;;;;;;26.58;45.15;99131.34;10481070;28;20040;-72
2023/07/12 02:15:59;;;;;;;5.75;5.30;;;;;;;26.71;44.73;99125.41;10480018;28;20426;-72
2023/07/12 02:21:01;;;;;;;17.55;4.75;;;;;;;26.70;44.65;99119.19;10497385;28;20037;-74
2023/07/12 02:26:07;;;;;;;5.82;3.40;;;;;;;26.59;45.56;99123.06;10479411;28;20049;-73
2023/07/12 02:31:17;;;;;;;9.63;4.18;;;;;;;26.37;46.83;99137.25;10479079;28;20071;-74
2023/07/12 02:36:19;;;;;;;4.90;3.75;;;;;;;26.28;47.47;99140.97;10479591;28;20136;-73
2023/07/12 02:41:20;;;;;;;4.43;3.10;;;;;;;26.02;48.85;99143.88;10497150;28;20048;-73
2023/07/12 02:46:22;;;;;;;5.25;3.47;;;;;;;25.76;49.72;99144.88;10497757;28;20068;-72
2023/07/12 02:51:24;;;;;;;3.55;2.80;;;;;;;25.63;50.09;99142.66;10496821;28;20079;-72
2023/07/12 02:56:25;;;;;;;3.85;2.55;;;;;;;25.55;50.27;99145.34;10498311;28;20115;-72
2023/07/12 03:01:27;;;;;;;5.85;2.63;;;;;;;25.48;50.63;99138.09;10506029;28;20397;-74
2023/07/12 03:06:29;;;;;;;2.97;2.25;;;;;;;25.30;50.84;99143.59;10504809;28;20040;-73
2023/07/12 03:11:31;;;;;;;4.90;2.30;;;;;;;25.09;52.36;99144.88;10505591;28;20116;-73
2023/07/12 03:16:33;;;;;;;3.45;2.58;;;;;;;24.96;52.17;99154.38;10504013;28;20060;-73
2023/07/12 03:21:35;;;;;;;2.97;2.00;;;;;;;25.29;50.48;99155.38;10504593;28;20044;-72
2023/07/12 03:26:37;;;;;;;3.65;1.83;;;;;;;25.03;51.52;99150.88;10485667;28;20056;-72
2023/07/12 03:31:38;;;;;;;7.43;1.73;;;;;;;25.01;50.94;99147.50;10503793;28;20094;-72
2023/07/12 03:36:40;;;;;;;3.03;1.70;;;;;;;25.21;50.95;99153.50;10503597;28;20047;-72
2023/07/12 03:41:42;;;;;;;4.32;1.50;;;;;;;25.10;51.01;99151.97;10485651;28;20383;-72
2023/07/12 03:46:44;;;;;;;2.30;1.85;;;;;;;25.25;50.58;99157.56;10485591;28;20052;-72
2023/07/12 03:51:46;;;;;;;2.35;1.60;;;;;;;25.29;50.42;99161.59;10484651;28;20045;-72
2023/07/12 03:56:48;;;;;;;2.63;2.20;;;;;;;25.14;51.32;99155.16;10502924;28;20421;-73
2023/07/12 04:01:52;;;;;;;2.58;1.60;;;;;;;25.10;50.97;99157.34;10484930;28;20044;-72
2023/07/12 04:06:54;;;;;;;1.90;1.40;;;;;;;24.98;51.74;99153.22;10502151;28;20066;-72
2023/07/12 04:11:55;;;;;;;2.63;1.67;;;;;;;24.92;51.92;99167.31;10501395;28;20040;-72
2023/07/12 04:16:57;;;;;;;2.00;1.70;;;;;;;24.82;52.23;99175.50;10501930;28;20052;-73
2023/07/12 04:21:59;;;;;;;2.80;1.73;;;;;;;25.00;51.74;99170.03;10502269;28;20064;-73
2023/07/12 04:27:01;;;;;;;2.80;2.00;;;;;;;25.05;50.48;99170.38;10501740;28;20047;-72
2023/07/12 04:32:03;;;;;;;1.40;1.30;;;;;;;25.05;50.79;99156.09;10466828;28;20044;-72
2023/07/12 04:37:06;;;;;;;3.60;1.65;;;;;;;25.09;50.18;99149.41;10501362;28;20052;-73
2023/07/12 04:42:08;;;;;;;2.28;1.10;;;;;;;25.18;50.19;99148.44;10500804;28;20041;-72
2023/07/12 04:47:10;;;;;;;1.92;1.30;;;;;;;25.20;49.90;99146.44;10483332;28;20091;-72
2023/07/12 04:52:12;;;;;;;1.77;1.08;;;;;;;25.19;49.58;99150.16;10500375;28;20091;-72
2023/07/12 04:57:14;;;;;;;1.92;1.23;;;;;;;25.19;49.42;99154.66;10500122;28;20051;-73
2023/07/12 05:02:17;;;;;;;1.30;0.90;;;;;;;25.38;48.89;99139.09;10499910;28;20037;-73
2023/07/12 05:07:18;;;;;;;1.77;1.10;;;;;;;25.52;48.30;99134.06;10499666;28;20079;-72
2023/07/12 05:12:20;;;;;;;2.22;1.10;;;;;;;25.47;48.10;99145.31;10499337;28;20398;-73
2023/07/12 05:17:22;;;;;;;1.48;0.95;;;;;;;25.49;48.69;99155.91;10499228;28;20128;-73
2023/07/12 05:22:24;;;;;;;3.70;1.25;;;;;;;25.34;50.05;99150.34;10499545;28;20032;-73
2023/07/12 05:27:26;;;;;;;2.53;1.30;;;;;;;25.29;50.53;99166.13;10499039;28;20036;-73
2023/07/12 05:32:28;;;;;;;2.90;1.13;;;;;;;25.42;48.24;99180.81;10498547;28;20042;-73
2023/07/12 05:37:30;;;;;;;2.70;1.25;;;;;;;25.30;50.04;99176.72;10499018;28;20115;-72
2023/07/12 05:42:37;;;;;;;1.75;1.00;;;;;;;25.31;49.60;99181.09;10498622;28;20065;-72
2023/07/12 05:47:42;;;;;;;1.95;1.10;;;;;;;25.44;50.06;99196.75;10498312;28;20474;-72
2023/07/12 05:52:44;;;;;;;4.27;1.80;;;;;;;25.54;49.70;99202.00;10498223;28;20040;-72
2023/07/12 05:57:49;;;;;;;2.85;2.08;;;;;;;25.83;48.34;99215.88;10498086;28;20048;-72
2023/07/12 06:02:51;;;;;;;2.42;1.63;;;;;;;26.19;47.10;99222.81;10497689;28;20098;-72
2023/07/12 06:07:53;;;;;;;4.18;1.63;;;;;;;26.27;47.41;99222.81;10497793;28;20041;-72
2023/07/12 06:12:55;;;;;;;2.65;1.55;;;;;;;26.37;47.02;99228.88;10498157;28;20048;-72
2023/07/12 06:17:56;;;;;;;3.40;1.30;;;;;;;26.42;47.35;99234.56;10479609;28;20072;-72
2023/07/12 06:22:58;;;;;;;2.90;1.63;;;;;;;26.48;46.92;99242.03;10497334;28;20383;-73
2023/07/12 06:28:00;;;;;;;1.65;1.10;;;;;;;26.57;47.73;99243.72;10497064;28;20050;-73
2023/07/12 06:33:02;;;;;;;4.05;1.60;;;;;;;26.54;48.14;99251.28;10486180;28;20071;-73
2023/07/12 06:38:04;;;;;;;5.22;1.70;;;;;;;26.56;50.34;99246.56;10511017;28;20454;-73
2023/07/12 06:43:05;;;;;;;3.80;1.30;;;;;;;26.60;51.05;99255.97;10492586;28;20477;-74
2023/07/12 06:48:07;;;;;;;1.63;1.00;;;;;;;27.15;47.01;99266.03;10511045;28;20044;-73
2023/07/12 06:53:09;;;;;;;2.20;1.00;;;;;;;27.34;46.66;99273.69;10512044;28;20041;-74
2023/07/12 06:58:12;;;;;;;1.58;0.90;;;;;;;27.26;46.67;99302.56;10511538;28;20039;-73
2023/07/12 07:03:15;;;;;;;1.13;0.90;;;;;;;27.38;45.55;99298.47;10511734;28;20394;-72
2023/07/12 07:08:19;;;;;;;3.03;0.98;;;;;;;27.66;46.29;99301.56;10511086;28;20032;-71
2023/07/12 07:13:24;;;;;;;2.03;0.90;;;;;;;27.72;43.89;99291.94;10510660;28;20048;-71
2023/07/12 07:18:26;;;;;;;3.13;0.90;;;;;;;27.98;44.90;99295.19;10510784;28;20083;-71
2023/07/12 07:23:28;;;;;;;1.35;0.95;;;;;;;28.28;43.51;99304.25;10509556;28;20037;-71
2023/07/12 07:28:30;;;;;;;2.08;1.20;;;;;;;28.59;43.20;99306.06;10510537;28;20437;-70
2023/07/12 07:33:32;;;;;;;3.90;1.00;;;;;;;27.99;44.47;99299.56;10510449;28;20090;-71
2023/07/12 07:38:34;;;;;;;1.58;0.80;;;;;;;27.82;45.52;99306.91;10510078;28;20076;-71
2023/07/12 07:43:37;;;;;;;1.90;0.65;;;;;;;27.80;43.73;99306.25;10506768;28;20059;-72
2023/07/12 07:48:38;;;;;;;1.67;0.60;;;;;;;27.39;44.55;99302.84;10503532;28;20119;-71
2023/07/12 07:53:40;;;;;;;2.67;0.80;;;;;;;27.35;43.51;99304.22;10503073;28;20444;-72
2023/07/12 07:58:42;;;;;;;5.97;0.98;;;;;;;27.30;45.06;99310.13;10503416;28;20107;-71
2023/07/12 08:03:44;;;;;;;1.65;0.60;;;;;;;27.20;45.33;99300.56;10502915;28;20409;-71
2023/07/12 08:08:47;;;;;;;2.22;1.00;;;;;;;27.55;44.32;99296.56;10502436;28;20037;-71
2023/07/12 08:13:49;;;;;;;1.58;0.70;;;;;;;28.13;42.89;99295.25;10502396;28;20394;-71
2023/07/12 08:18:50;;;;;;;0.68;0.60;;;;;;;27.74;44.31;99300.72;10502437;28;20040;-71
2023/07/12 08:23:52;;;;;;;2.45;0.77;;;;;;;27.40;44.42;99302.69;10484441;28;20051;-71
2023/07/12 08:28:54;;;;;;;1.10;0.70;;;;;;;27.28;46.02;99311.34;10499670;28;20040;-70
2023/07/12 08:33:56;;;;;;;1.50;0.95;;;;;;;27.34;46.25;99303.38;10483888;28;20056;-70
2023/07/12 08:38:58;;;;;;;1.10;0.90;;;;;;;27.23;46.60;99319.13;10500353;28;20036;-70
2023/07/12 08:44:00;;;;;;;2.53;1.10;;;;;;;27.15;46.68;99323.50;10500368;28;20048;-70
2023/07/12 08:49:02;;;;;;;2.85;1.08;;;;;;;27.06;46.45;99329.06;10500050;28;20087;-71
2023/07/12 08:54:04;;;;;;;1.00;0.90;;;;;;;27.06;48.05;99332.59;10481636;28;20043;-70
2023/07/12 08:59:13;;;;;;;3.40;1.15;;;;;;;27.60;46.80;99337.38;10488692;28;20557;-70
2023/07/12 09:04:20;;;;;;;1.25;1.15;;;;;;;28.07;45.69;99340.03;10403098;28;20097;-73
2023/07/12 09:09:22;;;;;;;1.63;1.08;;;;;;;28.43;45.52;99338.66;10431743;28;20068;-73
2023/07/12 09:14:24;;;;;;;3.80;1.00;;;;;;;28.89;46.33;99339.44;10440366;28;20051;-73
2023/07/12 09:19:31;;;;;;;3.08;1.20;;;;;;;29.42;44.27;99361.91;10457942;28;20048;-73
2023/07/12 09:24:42;;;;;;;3.03;1.55;;;;;;;29.17;43.43;99366.75;10440368;28;20124;-73
2023/07/12 09:29:44;;;;;;;1.95;1.30;;;;;;;28.90;44.95;99358.16;10457655;28;20033;-73
2023/07/12 09:34:47;;;;;;;2.10;1.50;;;;;;;28.59;45.53;99365.53;10458133;28;20466;-73
2023/07/12 09:40:01;;;;;;;2.03;1.27;;;;;;;28.53;45.28;99366.28;10457836;28;20437;-72
2023/07/12 09:45:10;;;;;;;1.65;1.27;;;;;;;28.54;46.93;99359.84;10440152;28;20053;-73
2023/07/12 09:50:29;;;;;;;2.40;1.50;;;;;;;28.62;45.43;99366.03;10457927;28;20368;-73
2023/07/12 09:56:00;;;;;;;4.25;1.55;;;;;;;28.59;46.87;99366.38;10478315;28;20099;-73
2023/07/12 10:01:07;;;;;;;2.45;1.73;;;;;;;29.07;45.00;99360.75;10480871;28;20040;-73
2023/07/12 10:06:10;;;;;;;2.88;1.73;;;;;;;29.11;44.17;99360.22;10498445;28;20044;-73
2023/07/12 10:11:36;;;;;;;2.80;1.60;;;;;;;29.43;43.85;99358.19;10499019;28;20071;-72
2023/07/12 10:16:51;;;;;;;2.88;1.52;;;;;;;29.58;44.84;99348.22;10481142;28;20548;-72
2023/07/12 10:21:57;;;;;;;5.07;2.00;;;;;;;30.02;42.66;99338.34;10480774;28;20490;-73
2023/07/12 10:27:03;;;;;;;2.30;1.75;;;;;;;29.70;43.20;99334.19;10499168;28;20044;-73
2023/07/12 10:32:06;;;;;;;1.50;1.40;;;;;;;29.60;44.04;99335.31;10480468;28;20064;-73
2023/07/12 10:37:36;;;;;;;2.38;1.65;;;;;;;30.45;42.37;99333.81;10481353;28;20048;-72
2023/07/12 10:42:51;;;;;;;2.65;1.48;;;;;;;30.51;41.93;99324.91;10479776;28;20045;-73
2023/07/12 10:47:55;;;;;;;1.73;1.42;;;;;;;29.89;43.82;99330.91;10497642;28;20467;-72
2023/07/12 10:53:21;;;;;;;2.23;1.70;;;;;;;30.20;44.95;99306.25;10478833;28;20048;-73
2023/07/12 10:58:45;;;;;;;2.75;1.90;;;;;;;30.81;41.54;99312.06;10479389;28;20067;-73
2023/07/12 11:03:47;;;;;;;5.35;1.70;;;;;;;29.94;44.18;99342.00;10497088;28;20048;-73
2023/07/12 11:09:00;;;;;;;21.13;4.03;;;;;;;28.99;51.21;99377.91;10496934;28;20490;-72
2023/07/12 11:14:19;;;;;;;11.50;4.18;;;;;;;25.90;67.53;99409.94;10498409;28;20406;-72
2023/07/12 11:19:33;;;;;;;10.55;3.72;;;;;;;23.81;83.58;99388.94;10500681;28;20037;-71
2023/07/12 11:24:52;;;;;;;6.00;3.03;;;;;;;23.45;87.26;99390.63;10505984;28;20037;-72
2023/07/12 11:30:06;;;;;;;5.10;3.22;;;;;;;23.85;90.03;99387.66;10504876;28;20037;-72
2023/07/12 11:35:43;;;;;;;5.80;2.33;;;;;;;24.84;83.32;99390.41;10504981;28;20470;-73
2023/07/12 11:40:50;;;;;;;5.32;3.38;;;;;;;25.54;88.12;99395.75;10504226;28;20041;-72
2023/07/12 11:45:54;;;;;;;3.42;3.08;;;;;;;26.30;81.60;99395.75;10503869;28;20064;-73
2023/07/12 11:51:01;;;;;;;3.95;3.13;;;;;;;26.59;76.05;99386.38;10503233;28;20432;-76
2023/07/12 11:56:05;;;;;;;5.07;3.25;;;;;;;27.07;76.72;99399.03;10503793;28;20127;-73
2023/07/12 12:01:14;;;;;;;4.57;3.58;;;;;;;27.88;73.28;99397.19;10506793;28;20044;-75
2023/07/12 12:06:18;;;;;;;4.88;3.20;;;;;;;28.75;71.08;99400.56;10507445;28;20076;-76
2023/07/12 12:11:21;;;;;;;5.55;3.00;;;;;;;28.75;62.40;99397.03;10472306;28;20444;-76
2023/07/12 12:16:29;;;;;;;4.05;3.17;;;;;;;28.90;57.25;99411.44;10507280;28;20052;-75
2023/07/12 12:21:31;;;;;;;3.22;2.83;;;;;;;28.80;56.11;99410.84;10509434;28;20036;-75
2023/07/12 12:26:39;;;;;;;3.92;2.78;;;;;;;28.02;58.89;99412.66;10507745;28;20044;-75
2023/07/12 12:31:56;;;;;;;3.28;2.97;;;;;;;27.86;58.06;99418.13;10507658;28;20040;-75
2023/07/12 12:37:11;;;;;;;5.53;2.97;;;;;;;27.73;60.30;99415.16;10501426;28;20064;-75
2023/07/12 12:42:19;;;;;;;3.60;3.30;;;;;;;27.52;57.31;99408.41;10507772;28;20534;-74
2023/07/12 12:47:27;;;;;;;3.28;2.65;;;;;;;27.37;60.41;99410.16;10510780;28;20356;-74
2023/07/12 12:52:32;;;;;;;3.13;2.72;;;;;;;27.35;60.25;99407.59;10490384;28;20048;-74
2023/07/12 12:57:56;;;;;;;4.05;3.03;;;;;;;28.11;58.98;99402.63;10495271;28;20488;-73
2023/07/12 13:03:01;;;;;;;3.00;2.70;;;;;;;29.04;56.32;99399.88;10493316;28;20070;-73
2023/07/12 13:08:16;;;;;;;3.97;2.67;;;;;;;28.65;52.83;99387.31;10507471;28;20486;-74
2023/07/12 13:13:21;;;;;;;5.00;2.75;;;;;;;28.93;52.52;99394.84;10513525;28;20105;-73
2023/07/12 13:18:28;;;;;;;4.60;2.30;;;;;;;28.74;50.37;99398.06;10509679;28;20048;-74
2023/07/12 13:23:51;;;;;;;3.60;2.70;;;;;;;28.28;55.03;99401.53;10495147;28;20053;-74
2023/07/12 13:28:54;;;;;;;3.65;2.92;;;;;;;28.25;57.90;99391.09;10507542;28;20055;-74
2023/07/12 13:33:56;;;;;;;4.45;2.92;;;;;;;28.81;52.32;99380.06;10504555;28;20047;-74
2023/07/12 13:39:15;;;;;;;4.00;2.75;;;;;;;29.35;52.97;99383.50;10488581;28;20409;-73
2023/07/12 13:44:21;;;;;;;4.13;2.55;;;;;;;29.58;51.25;99386.13;10501979;28;20040;-74
2023/07/12 13:49:27;;;;;;;3.22;1.70;;;;;;;29.39;44.68;99384.78;10483283;28;20044;-76
2023/07/12 13:54:29;;;;;;;2.70;1.95;;;;;;;29.72;43.52;99391.75;10499903;28;20044;-77
2023/07/12 13:59:31;;;;;;;2.95;1.70;;;;;;;29.83;44.09;99400.22;10500183;28;20502;-77
2023/07/12 14:04:33;;;;;;;2.80;1.50;;;;;;;29.49;40.44;99405.34;10501517;28;20044;-77
2023/07/12 14:09:39;;;;;;;3.38;1.67;;;;;;;29.76;40.45;99406.59;10500949;28;20037;-77
2023/07/12 14:14:43;;;;;;;2.17;1.20;;;;;;;29.82;38.95;99405.84;10503378;28;20064;-77
2023/07/12 14:19:50;;;;;;;3.05;1.23;;;;;;;29.65;38.67;99411.44;10501495;28;20033;-77
2023/07/12 14:24:54;;;;;;;2.80;1.13;;;;;;;30.12;38.62;99417.47;10500372;28;20044;-77
2023/07/12 14:29:57;;;;;;;1.20;0.90;;;;;;;30.01;39.32;99420.66;10499064;28;20040;-76
2023/07/12 14:35:04;;;;;;;2.05;1.20;;;;;;;29.74;40.19;99403.22;10497170;28;20136;-77
2023/07/12 14:40:08;;;;;;;1.60;0.88;;;;;;;29.64;39.16;99409.75;10499327;28;20047;-78
2023/07/12 14:45:22;;;;;;;1.25;0.90;;;;;;;30.21;36.42;99391.97;10482913;28;20044;-77
2023/07/12 14:50:26;;;;;;;1.40;0.80;;;;;;;29.76;37.14;99383.06;10505247;28;20037;-79
2023/07/12 14:55:28;;;;;;;3.35;1.65;;;;;;;29.52;37.66;99389.53;10505368;28;20056;-76
2023/07/12 15:00:29;;;;;;;1.95;1.00;;;;;;;29.59;37.03;99385.09;10508257;28;20049;-77
2023/07/12 15:05:31;;;;;;;1.67;0.90;;;;;;;30.11;35.66;99394.97;10506551;28;20102;-77
2023/07/12 15:10:33;;;;;;;1.65;0.70;;;;;;;29.02;36.75;99387.53;10507733;28;20106;-76
2023/07/12 15:15:35;;;;;;;2.95;0.77;;;;;;;28.65;37.54;99402.69;10506803;28;20431;-76
2023/07/12 15:20:37;;;;;;;2.13;0.98;;;;;;;28.67;37.56;99398.78;10507136;28;20067;-77
2023/07/12 15:25:39;;;;;;;3.05;0.95;;;;;;;28.37;38.37;99399.66;10506224;28;20102;-77
2023/07/12 15:30:43;;;;;;;1.88;1.15;;;;;;;28.35;37.91;99394.44;10487548;28;20040;-76
2023/07/12 15:35:45;;;;;;;2.05;0.93;;;;;;;28.70;37.86;99396.75;10505361;28;20044;-76
2023/07/12 15:40:58;;;;;;;4.28;1.10;;;;;;;28.60;37.31;99395.13;10504764;28;20036;-77
2023/07/12 15:46:02;;;;;;;2.60;0.90;;;;;;;28.13;38.19;99387.94;10487850;28;20059;-80
2023/07/12 15:51:21;;;;;;;2.90;0.90;;;;;;;27.97;38.89;99401.53;10487754;28;20086;-77
2023/07/12 15:56:30;;;;;;;2.97;1.30;;;;;;;27.95;38.89;99400.88;10545898;28;20222;-77
2023/07/12 16:01:35;;;;;;;2.20;1.92;;;;;;;27.92;39.44;99393.94;10545787;28;20494;-76
2023/07/12 16:06:37;;;;;;;2.28;0.90;;;;;;;28.99;37.41;99394.13;10545559;28;20502;-77
2023/07/12 16:11:43;;;;;;;1.55;1.02;;;;;;;29.19;36.49;99386.34;10527289;28;20108;-77
2023/07/12 16:16:45;;;;;;;1.55;1.27;;;;;;;28.74;37.58;99395.38;10545247;28;20040;-77
2023/07/12 16:21:47;;;;;;;2.20;1.20;;;;;;;28.77;37.66;99405.78;10546380;28;20046;-77
2023/07/12 16:26:49;;;;;;;1.75;1.17;;;;;;;28.35;37.63;99405.25;10546053;28;20127;-77
2023/07/12 16:31:52;;;;;;;3.17;1.02;;;;;;;27.90;38.13;99408.66;10544415;28;20119;-77
2023/07/12 16:36:57;;;;;;;5.70;1.15;;;;;;;27.95;38.08;99403.56;10544843;28;20427;-78
2023/07/12 16:41:59;;;;;;;2.30;0.70;;;;;;;28.18;37.29;99398.22;10545609;28;20087;-78
2023/07/12 16:47:00;;;;;;;1.10;1.00;;;;;;;28.27;38.27;99399.03;10545655;28;20516;-77
2023/07/12 16:52:04;;;;;;;2.13;1.20;;;;;;;28.24;37.11;99396.66;10546464;28;20059;-78
2023/07/12 16:57:21;;;;;;;1.33;0.80;;;;;;;28.00;39.29;99394.94;10549904;28;20121;-78
2023/07/12 17:02:28;;;;;;;1.88;0.68;;;;;;;28.01;38.21;99402.03;10544127;28;20079;-78
2023/07/12 17:07:30;;;;;;;3.17;1.10;;;;;;;27.88;40.42;99411.53;10527246;28;20044;-77
2023/07/12 17:12:34;;;;;;;2.50;1.10;;;;;;;27.87;39.78;99425.22;10546446;28;20036;-78
2023/07/12 17:17:35;;;;;;;1.27;0.98;;;;;;;27.52;38.93;99419.22;10544230;28;20040;-77
2023/07/12 17:22:38;;;;;;;3.70;2.65;;;;;;;27.73;38.85;99429.50;10547332;28;20516;-78
2023/07/12 17:27:40;;;;;;;3.05;1.65;;;;;;;27.78;38.49;99437.06;10546526;28;20078;-77
2023/07/12 17:32:42;;;;;;;4.43;2.10;;;;;;;27.57;39.08;99426.78;10527383;28;20043;-77
2023/07/12 17:37:44;;;;;;;2.13;1.60;;;;;;;27.47;42.75;99427.00;10543086;28;20051;-77
2023/07/12 17:42:46;;;;;;;2.28;1.45;;;;;;;27.34;41.30;99440.16;10545973;28;20044;-77
2023/07/12 17:47:48;;;;;;;4.35;1.33;;;;;;;27.22;41.54;99419.94;10548100;28;20052;-79
2023/07/12 17:52:51;;;;;;;2.58;1.33;;;;;;;27.31;40.48;99411.66;10576335;22;20071;-75
2023/07/12 17:57:53;;;;;;;2.60;1.20;;;;;;;27.15;40.36;99415.25;10584984;28;20436;-75
2023/07/12 18:02:55;;;;;;;1.17;1.08;;;;;;;27.19;41.03;99420.31;10585636;28;20461;-75
2023/07/12 18:07:58;;;;;;;1.65;0.90;;;;;;;27.16;40.99;99425.00;10585860;28;20059;-76
2023/07/12 18:13:00;;;;;;;2.08;1.15;;;;;;;27.00;41.00;99422.28;10585113;28;20400;-75
2023/07/12 18:18:02;;;;;;;2.10;1.00;;;;;;;26.95;41.30;99423.81;10585314;28;20489;-74
2023/07/12 18:23:16;;;;;;;2.40;1.60;;;;;;;26.89;42.13;99412.69;10585317;28;20454;-74
2023/07/12 18:28:20;;;;;;;2.35;1.40;;;;;;;26.79;41.35;99419.28;10583045;28;20035;-74
2023/07/12 18:33:23;;;;;;;4.47;1.42;;;;;;;26.91;41.50;99424.13;10566314;28;20416;-73
2023/07/12 18:38:25;;;;;;;1.55;1.10;;;;;;;26.69;42.97;99405.09;10550110;28;20043;-75
2023/07/12 18:43:29;;;;;;;2.95;1.10;;;;;;;26.72;41.18;99407.47;10585510;28;20035;-75
2023/07/12 18:48:31;;;;;;;1.80;1.40;;;;;;;26.50;40.88;99414.34;10566580;28;20054;-75
2023/07/12 18:53:33;;;;;;;2.33;0.90;;;;;;;26.28;40.92;99413.06;10566699;28;20059;-75
2023/07/12 18:58:35;;;;;;;1.02;0.90;;;;;;;26.09;41.01;99406.97;10583456;28;20071;-74
2023/07/12 19:03:37;;;;;;;1.55;1.10;;;;;;;25.94;41.06;99410.44;10584128;28;20043;-74
2023/07/12 19:08:39;;;;;;;1.83;0.85;;;;;;;25.65;41.59;99412.47;10565462;28;20058;-73
2023/07/12 19:13:40;;;;;;;3.15;1.00;;;;;;;25.55;41.85;99430.59;10564948;28;20043;-76
2023/07/12 19:18:42;;;;;;;1.20;1.10;;;;;;;25.38;42.14;99437.72;10583320;28;20047;-75
2023/07/12 19:23:44;;;;;;;2.42;1.40;;;;;;;25.51;41.74;99458.81;10584957;28;20047;-76
2023/07/12 19:28:46;;;;;;;1.02;0.80;;;;;;;25.18;42.29;99465.78;10565069;28;20043;-75
2023/07/12 19:33:50;;;;;;;0.70;0.70;;;;;;;25.33;40.57;99479.56;10564620;28;20044;-75
2023/07/12 19:38:52;;;;;;;1.95;1.00;;;;;;;25.27;41.98;99486.38;10585145;28;20085;-74
2023/07/12 19:43:54;;;;;;;1.05;0.98;;;;;;;25.14;41.64;99494.00;10590832;28;20127;-73
2023/07/12 19:48:56;;;;;;;1.20;1.00;;;;;;;25.13;42.16;99485.09;10590450;28;20131;-74
2023/07/12 19:54:01;;;;;;;1.15;0.93;;;;;;;24.87;43.26;99487.69;10590429;28;20031;-74
2023/07/12 19:59:03;;;;;;;1.65;1.30;;;;;;;24.73;43.85;99498.13;10571435;28;20044;-74
2023/07/12 20:04:06;;;;;;;0.85;0.80;;;;;;;24.72;43.79;99501.81;10572112;28;20066;-74
2023/07/12 20:09:09;;;;;;;1.50;0.98;;;;;;;24.49;44.81;99501.41;10589989;28;20047;-75
2023/07/12 20:14:13;;;;;;;1.60;1.50;;;;;;;24.30;44.63;99494.25;10589487;28;20549;-74
2023/07/12 20:19:15;;;;;;;2.67;1.88;;;;;;;24.52;44.25;99515.38;10589395;28;20039;-74
2023/07/12 20:24:18;;;;;;;1.27;1.00;;;;;;;24.55;43.16;99517.75;10589201;28;20046;-74
2023/07/12 20:29:20;;;;;;;1.30;1.20;;;;;;;24.19;44.98;99510.59;10589178;28;20075;-73
2023/07/12 20:34:23;;;;;;;1.55;1.10;;;;;;;24.31;43.58;99504.03;10588572;28;20105;-74
2023/07/12 20:39:27;;;;;;;1.55;1.00;;;;;;;24.29;43.88;99511.38;10569892;28;20046;-73
2023/07/12 20:44:29;;;;;;;1.58;1.15;;;;;;;24.23;44.45;99528.09;10587225;28;20475;-73
2023/07/12 20:49:31;;;;;;;1.10;0.98;;;;;;;24.25;43.89;99531.47;10587005;28;20048;-71
2023/07/12 20:54:34;;;;;;;1.30;1.13;;;;;;;23.78;45.75;99542.25;10586212;28;20449;-72
2023/07/12 20:59:37;;;;;;;1.88;1.42;;;;;;;23.85;46.43;99552.22;10586938;28;20073;-72
2023/07/12 21:04:38;;;;;;;2.17;1.52;;;;;;;23.70;45.93;99550.16;10586392;28;20040;-72
2023/07/12 21:09:40;;;;;;;2.88;1.20;;;;;;;23.92;44.56;99555.19;10586111;28;20118;-72
2023/07/12 21:14:42;;;;;;;1.73;1.10;;;;;;;23.80;44.28;99557.19;10585764;28;20042;-72
2023/07/12 21:19:44;;;;;;;0.93;0.82;;;;;;;23.74;44.26;99544.34;10585992;28;20123;-72
2023/07/12 21:24:45;;;;;;;0.90;0.70;;;;;;;23.54;44.89;99543.50;10586607;28;20040;-72
2023/07/12 21:29:48;;;;;;;1.58;0.75;;;;;;;23.40;45.24;99543.94;10586069;28;20043;-72
2023/07/12 21:34:50;;;;;;;1.85;0.90;;;;;;;23.31;45.25;99545.66;10567243;28;20043;-71
2023/07/12 21:39:51;;;;;;;1.00;0.90;;;;;;;23.41;45.10;99557.22;10585507;28;20126;-72
2023/07/12 21:44:56;;;;;;;0.98;0.82;;;;;;;23.15;46.10;99562.31;10584410;28;20039;-72
2023/07/12 21:49:58;;;;;;;2.13;0.93;;;;;;;22.92;48.40;99574.25;10584421;28;20044;-72
2023/07/12 21:55:03;;;;;;;1.33;0.95;;;;;;;22.83;46.73;99570.56;10584451;28;20093;-72
2023/07/12 22:00:11;;;;;;;1.15;0.80;;;;;;;22.83;45.92;99577.75;10583933;28;20138;-72
2023/07/12 22:05:14;;;;;;;2.30;0.90;;;;;;;22.92;44.81;99580.47;10584501;28;20127;-72
2023/07/12 22:10:15;;;;;;;1.13;0.80;;;;;;;22.74;45.21;99584.78;10565830;28;20051;-72
2023/07/12 22:15:17;;;;;;;1.70;0.85;;;;;;;22.67;44.99;99594.38;10583639;28;20069;-72
2023/07/12 22:20:20;;;;;;;1.13;0.98;;;;;;;22.71;45.49;99585.06;10583177;28;20118;-72
2023/07/12 22:25:22;;;;;;;2.17;0.80;;;;;;;22.71;44.87;99597.59;10583838;28;20417;-72
2023/07/12 22:30:27;;;;;;;1.25;0.93;;;;;;;22.82;45.15;99592.97;10564494;28;20047;-72
2023/07/12 22:35:30;;;;;;;1.52;0.90;;;;;;;22.73;45.75;99601.00;10565438;28;20044;-73
2023/07/12 22:40:32;;;;;;;1.45;0.80;;;;;;;22.77;46.58;99600.59;10582633;28;20058;-73
2023/07/12 22:45:34;;;;;;;4.55;0.80;;;;;;;22.78;45.86;99599.59;10584640;28;20050;-73
2023/07/12 22:50:36;;;;;;;1.00;0.93;;;;;;;22.64;45.47;99608.03;10582924;28;20054;-71
2023/07/12 22:55:37;;;;;;;0.95;0.82;;;;;;;22.76;45.75;99585.50;10582420;28;20408;-72
2023/07/12 23:00:39;;;;;;;1.10;0.73;;;;;;;22.52;46.74;99609.94;10582584;28;20031;-72
2023/07/12 23:05:41;;;;;;;0.70;0.70;;;;;;;22.30;46.85;99640.44;10583174;28;20048;-72
2023/07/12 23:10:43;;;;;;;1.48;0.90;;;;;;;22.47;45.96;99638.97;10565714;28;20048;-72
2023/07/12 23:15:45;;;;;;;1.63;0.80;;;;;;;22.04;47.62;99628.41;10568864;28;20059;-72
2023/07/12 23:20:49;;;;;;;1.75;0.80;;;;;;;21.95;49.29;99630.03;10591222;28;20044;-72
2023/07/12 23:25:51;;;;;;;1.33;0.85;;;;;;;22.10;48.17;99631.44;10591254;28;20412;-72
2023/07/12 23:30:53;;;;;;;1.70;0.80;;;;;;;22.28;47.23;99649.59;10591217;28;20035;-72
2023/07/12 23:35:55;;;;;;;1.98;0.90;;;;;;;22.24;47.29;99648.16;10590044;28;20248;-71